Terminal Aerodrome Forecast
Issued by NWS Paducah, KY

Home | Current Version | Previous Version | Text Only | Print | Product List | Glossary On
Versions: 1 2 3 4 5 6 7 8 9 10 11 12 13 14 15 16 17 18
000
FTUS43 KPAH 011151
TAFEVV
TAF
KEVV 011151Z 0112/0212 12004KT P6SM -RA SCT040 OVC070
      TEMPO 0112/0114 6SM -FZRA BR BKN040 OVC060
     FM011500 VRB03KT 5SM -DZ BR OVC015
     FM011700 30004KT 4SM -DZ BR OVC010
     FM012100 32005KT P6SM OVC015
     FM020300 33005KT P6SM BKN150=

USA.gov is the U.S. government's official web portal to all federal, state and local government web resources and services.